Archival Weather

Chicago O'Hare International

Chicago, Illinois (KORD)

Report from: Saturday, December 31, 2022 7:51 AM CST
Current time: Wednesday, May 29, 2024 2:50 AM CDT

Current weather – Weather history – Daily summaries
Weather forecast

Temperature-2.8°C (27.0°F)
Dew point-5.6°C (21.9°F)
Winds Calm
Visibility10 mi. (16.1 km)
Clouds Ceiling: Broken clouds 18,000 ft. (5,486 m)
Broken clouds 25,000 ft. (7,620 m)
Altimeter29.93 in.Hg (1014 mB)
Relative humidity81 %
Density altitude-2,154 ft. (-657 m)
Sea-level pressure101.4 kPa (1014 mB, 29.95 in.Hg)
Remarks Automated weather observing station with precipitation discriminator
Flight conditions Visual Meteorological Conditions
Raw dataKORD 311351Z 00000KT 10SM BKN180 BKN250 M03/M06 A2993 RMK AO2 SLP141 T10281056
An error has occurred. This application may no longer respond until reloaded. Reload 🗙